sensor_id;sensor_type;location;lat;lon;timestamp;temperature;humidity
24426;DHT22;12611;44.446;26.000;2022-07-12T00:00:21;23.40;58.80
24426;DHT22;12611;44.446;26.000;2022-07-12T00:02:50;23.40;58.90
24426;DHT22;12611;44.446;26.000;2022-07-12T00:05:20;23.30;59.00
24426;DHT22;12611;44.446;26.000;2022-07-12T00:07:49;23.30;59.00
24426;DHT22;12611;44.446;26.000;2022-07-12T00:10:17;23.30;59.00
24426;DHT22;12611;44.446;26.000;2022-07-12T00:12:45;23.30;59.10
24426;DHT22;12611;44.446;26.000;2022-07-12T00:15:14;23.20;58.90
24426;DHT22;12611;44.446;26.000;2022-07-12T00:17:43;23.20;59.00
24426;DHT22;12611;44.446;26.000;2022-07-12T00:20:12;23.20;58.90
24426;DHT22;12611;44.446;26.000;2022-07-12T00:22:42;23.10;58.80
24426;DHT22;12611;44.446;26.000;2022-07-12T00:25:10;23.10;58.60
24426;DHT22;12611;44.446;26.000;2022-07-12T00:27:38;23.10;58.50
24426;DHT22;12611;44.446;26.000;2022-07-12T00:30:08;23.00;58.40
24426;DHT22;12611;44.446;26.000;2022-07-12T00:32:36;23.00;57.90
24426;DHT22;12611;44.446;26.000;2022-07-12T00:35:05;23.00;57.50
24426;DHT22;12611;44.446;26.000;2022-07-12T00:37:34;23.00;57.40
24426;DHT22;12611;44.446;26.000;2022-07-12T00:40:05;23.00;57.40
24426;DHT22;12611;44.446;26.000;2022-07-12T00:42:35;22.90;57.30
24426;DHT22;12611;44.446;26.000;2022-07-12T00:45:07;23.00;57.40
24426;DHT22;12611;44.446;26.000;2022-07-12T00:47:37;22.90;57.20
24426;DHT22;12611;44.446;26.000;2022-07-12T00:50:08;22.90;57.30
24426;DHT22;12611;44.446;26.000;2022-07-12T00:52:37;22.90;57.40
24426;DHT22;12611;44.446;26.000;2022-07-12T00:55:08;22.90;57.50
24426;DHT22;12611;44.446;26.000;2022-07-12T00:57:38;22.90;57.60
24426;DHT22;12611;44.446;26.000;2022-07-12T01:00:08;22.90;57.60
24426;DHT22;12611;44.446;26.000;2022-07-12T01:02:37;22.90;57.60
24426;DHT22;12611;44.446;26.000;2022-07-12T01:05:07;22.90;57.50
24426;DHT22;12611;44.446;26.000;2022-07-12T01:07:36;22.90;57.60
24426;DHT22;12611;44.446;26.000;2022-07-12T01:10:07;22.90;57.60
24426;DHT22;12611;44.446;26.000;2022-07-12T01:12:36;22.90;57.70
24426;DHT22;12611;44.446;26.000;2022-07-12T01:15:05;22.90;57.70
24426;DHT22;12611;44.446;26.000;2022-07-12T01:17:34;22.90;58.40
24426;DHT22;12611;44.446;26.000;2022-07-12T01:20:04;22.90;57.70
24426;DHT22;12611;44.446;26.000;2022-07-12T01:22:35;22.90;57.80
24426;DHT22;12611;44.446;26.000;2022-07-12T01:25:06;22.90;57.90
24426;DHT22;12611;44.446;26.000;2022-07-12T01:27:35;22.90;57.90
24426;DHT22;12611;44.446;26.000;2022-07-12T01:30:06;23.00;57.90
24426;DHT22;12611;44.446;26.000;2022-07-12T01:32:34;22.90;58.00
24426;DHT22;12611;44.446;26.000;2022-07-12T01:35:05;22.90;58.00
24426;DHT22;12611;44.446;26.000;2022-07-12T01:37:35;22.90;58.10
24426;DHT22;12611;44.446;26.000;2022-07-12T01:40:06;22.90;58.00
24426;DHT22;12611;44.446;26.000;2022-07-12T01:42:35;22.90;58.10
24426;DHT22;12611;44.446;26.000;2022-07-12T01:45:05;22.90;58.10
24426;DHT22;12611;44.446;26.000;2022-07-12T01:47:34;22.90;58.10
24426;DHT22;12611;44.446;26.000;2022-07-12T01:50:05;22.90;58.00
24426;DHT22;12611;44.446;26.000;2022-07-12T01:52:34;22.90;58.10
24426;DHT22;12611;44.446;26.000;2022-07-12T01:55:06;22.90;58.20
24426;DHT22;12611;44.446;26.000;2022-07-12T01:57:35;22.90;58.30
24426;DHT22;12611;44.446;26.000;2022-07-12T02:00:05;22.90;58.40
24426;DHT22;12611;44.446;26.000;2022-07-12T02:02:34;22.90;58.60
24426;DHT22;12611;44.446;26.000;2022-07-12T02:05:03;22.80;58.70
24426;DHT22;12611;44.446;26.000;2022-07-12T02:07:33;22.80;58.80
24426;DHT22;12611;44.446;26.000;2022-07-12T02:10:01;22.90;58.80
24426;DHT22;12611;44.446;26.000;2022-07-12T02:12:31;22.80;58.70
24426;DHT22;12611;44.446;26.000;2022-07-12T02:15:00;22.80;58.60
24426;DHT22;12611;44.446;26.000;2022-07-12T02:17:28;22.80;58.60
24426;DHT22;12611;44.446;26.000;2022-07-12T02:19:56;22.80;58.60
24426;DHT22;12611;44.446;26.000;2022-07-12T02:22:25;22.90;58.60
24426;DHT22;12611;44.446;26.000;2022-07-12T02:24:53;22.90;58.70
24426;DHT22;12611;44.446;26.000;2022-07-12T02:27:22;22.90;58.70
24426;DHT22;12611;44.446;26.000;2022-07-12T02:29:52;22.90;58.80
24426;DHT22;12611;44.446;26.000;2022-07-12T02:32:20;22.90;58.80
24426;DHT22;12611;44.446;26.000;2022-07-12T02:34:49;22.90;58.80
24426;DHT22;12611;44.446;26.000;2022-07-12T02:37:17;22.90;58.80
24426;DHT22;12611;44.446;26.000;2022-07-12T02:39:46;22.90;58.80
24426;DHT22;12611;44.446;26.000;2022-07-12T02:42:14;22.90;58.90
24426;DHT22;12611;44.446;26.000;2022-07-12T02:44:42;22.90;58.90
24426;DHT22;12611;44.446;26.000;2022-07-12T02:47:12;22.90;59.00
24426;DHT22;12611;44.446;26.000;2022-07-12T02:49:41;22.90;59.10
24426;DHT22;12611;44.446;26.000;2022-07-12T02:52:09;22.90;59.30
24426;DHT22;12611;44.446;26.000;2022-07-12T02:54:37;22.90;59.40
24426;DHT22;12611;44.446;26.000;2022-07-12T02:57:06;22.90;59.40
24426;DHT22;12611;44.446;26.000;2022-07-12T02:59:34;22.90;59.50
24426;DHT22;12611;44.446;26.000;2022-07-12T03:02:03;22.90;59.50
24426;DHT22;12611;44.446;26.000;2022-07-12T03:04:33;22.90;59.70
24426;DHT22;12611;44.446;26.000;2022-07-12T03:07:03;22.90;59.70
24426;DHT22;12611;44.446;26.000;2022-07-12T03:09:31;22.90;59.70
24426;DHT22;12611;44.446;26.000;2022-07-12T03:12:00;22.90;59.80
24426;DHT22;12611;44.446;26.000;2022-07-12T03:14:28;22.90;59.90
24426;DHT22;12611;44.446;26.000;2022-07-12T03:16:56;22.90;60.00
24426;DHT22;12611;44.446;26.000;2022-07-12T03:19:25;22.90;60.20
24426;DHT22;12611;44.446;26.000;2022-07-12T03:21:54;22.90;60.30
24426;DHT22;12611;44.446;26.000;2022-07-12T03:24:23;22.80;60.30
24426;DHT22;12611;44.446;26.000;2022-07-12T03:26:51;22.80;60.50
24426;DHT22;12611;44.446;26.000;2022-07-12T03:29:19;22.80;60.70
24426;DHT22;12611;44.446;26.000;2022-07-12T03:31:48;22.80;60.90
24426;DHT22;12611;44.446;26.000;2022-07-12T03:34:16;22.80;61.00
24426;DHT22;12611;44.446;26.000;2022-07-12T03:36:44;22.80;61.10
24426;DHT22;12611;44.446;26.000;2022-07-12T03:39:14;22.80;61.30
24426;DHT22;12611;44.446;26.000;2022-07-12T03:41:42;22.80;61.70
24426;DHT22;12611;44.446;26.000;2022-07-12T03:44:11;22.80;61.70
24426;DHT22;12611;44.446;26.000;2022-07-12T03:46:39;22.80;61.90
24426;DHT22;12611;44.446;26.000;2022-07-12T03:49:08;22.80;62.00
24426;DHT22;12611;44.446;26.000;2022-07-12T03:51:36;22.80;62.20
24426;DHT22;12611;44.446;26.000;2022-07-12T03:54:04;22.80;62.40
24426;DHT22;12611;44.446;26.000;2022-07-12T03:56:35;22.80;62.60
24426;DHT22;12611;44.446;26.000;2022-07-12T03:59:21;22.80;62.70
24426;DHT22;12611;44.446;26.000;2022-07-12T04:01:50;22.70;62.70
24426;DHT22;12611;44.446;26.000;2022-07-12T04:04:18;22.70;62.70
24426;DHT22;12611;44.446;26.000;2022-07-12T04:06:47;22.70;62.80
24426;DHT22;12611;44.446;26.000;2022-07-12T04:09:15;22.70;62.70
24426;DHT22;12611;44.446;26.000;2022-07-12T04:11:45;22.70;62.70
24426;DHT22;12611;44.446;26.000;2022-07-12T04:14:14;22.70;62.80
24426;DHT22;12611;44.446;26.000;2022-07-12T04:16:43;22.70;63.00
24426;DHT22;12611;44.446;26.000;2022-07-12T04:19:11;22.70;63.20
24426;DHT22;12611;44.446;26.000;2022-07-12T04:21:40;22.70;63.20
24426;DHT22;12611;44.446;26.000;2022-07-12T04:24:08;22.70;63.20
24426;DHT22;12611;44.446;26.000;2022-07-12T04:26:37;22.70;63.40
24426;DHT22;12611;44.446;26.000;2022-07-12T04:29:06;22.70;63.50
24426;DHT22;12611;44.446;26.000;2022-07-12T04:31:35;22.60;63.60
24426;DHT22;12611;44.446;26.000;2022-07-12T04:34:03;22.70;63.60
24426;DHT22;12611;44.446;26.000;2022-07-12T04:36:31;22.70;63.60
24426;DHT22;12611;44.446;26.000;2022-07-12T04:39:01;22.70;63.70
24426;DHT22;12611;44.446;26.000;2022-07-12T04:41:29;22.70;64.10
24426;DHT22;12611;44.446;26.000;2022-07-12T04:43:58;22.60;64.10
24426;DHT22;12611;44.446;26.000;2022-07-12T04:46:28;22.70;64.40
24426;DHT22;12611;44.446;26.000;2022-07-12T04:48:56;22.60;64.40
24426;DHT22;12611;44.446;26.000;2022-07-12T04:51:24;22.60;64.30
24426;DHT22;12611;44.446;26.000;2022-07-12T04:53:53;22.70;64.30
24426;DHT22;12611;44.446;26.000;2022-07-12T04:56:22;22.70;64.40
24426;DHT22;12611;44.446;26.000;2022-07-12T04:58:50;22.80;64.40
24426;DHT22;12611;44.446;26.000;2022-07-12T05:01:27;22.90;64.80
24426;DHT22;12611;44.446;26.000;2022-07-12T05:03:56;22.90;64.60
24426;DHT22;12611;44.446;26.000;2022-07-12T05:06:24;22.90;64.50
24426;DHT22;12611;44.446;26.000;2022-07-12T05:08:53;22.90;64.40
24426;DHT22;12611;44.446;26.000;2022-07-12T05:11:22;22.90;64.40
24426;DHT22;12611;44.446;26.000;2022-07-12T05:13:50;23.00;64.40
24426;DHT22;12611;44.446;26.000;2022-07-12T05:16:19;23.00;64.40
24426;DHT22;12611;44.446;26.000;2022-07-12T05:18:49;23.00;64.50
24426;DHT22;12611;44.446;26.000;2022-07-12T05:21:22;23.00;64.50
24426;DHT22;12611;44.446;26.000;2022-07-12T05:23:50;23.10;64.90
24426;DHT22;12611;44.446;26.000;2022-07-12T05:26:18;23.10;65.00
24426;DHT22;12611;44.446;26.000;2022-07-12T05:28:48;23.20;65.10
24426;DHT22;12611;44.446;26.000;2022-07-12T05:31:17;23.20;65.20
24426;DHT22;12611;44.446;26.000;2022-07-12T05:33:46;23.30;65.20
24426;DHT22;12611;44.446;26.000;2022-07-12T05:36:15;23.40;64.90
24426;DHT22;12611;44.446;26.000;2022-07-12T05:38:44;23.40;64.60
24426;DHT22;12611;44.446;26.000;2022-07-12T05:41:12;23.50;64.70
24426;DHT22;12611;44.446;26.000;2022-07-12T05:43:41;23.50;64.30
24426;DHT22;12611;44.446;26.000;2022-07-12T05:46:11;23.50;63.30
24426;DHT22;12611;44.446;26.000;2022-07-12T05:48:39;23.50;63.10
24426;DHT22;12611;44.446;26.000;2022-07-12T05:51:07;23.60;62.80
24426;DHT22;12611;44.446;26.000;2022-07-12T05:53:55;23.70;62.50
24426;DHT22;12611;44.446;26.000;2022-07-12T05:56:23;23.70;62.20
24426;DHT22;12611;44.446;26.000;2022-07-12T05:58:52;23.80;61.90
24426;DHT22;12611;44.446;26.000;2022-07-12T06:01:20;23.90;61.70
24426;DHT22;12611;44.446;26.000;2022-07-12T06:03:49;23.90;61.10
24426;DHT22;12611;44.446;26.000;2022-07-12T06:06:17;24.00;59.90
24426;DHT22;12611;44.446;26.000;2022-07-12T06:08:46;24.00;59.00
24426;DHT22;12611;44.446;26.000;2022-07-12T06:11:15;24.00;58.90
24426;DHT22;12611;44.446;26.000;2022-07-12T06:13:44;24.00;59.30
24426;DHT22;12611;44.446;26.000;2022-07-12T06:16:12;24.00;59.50
24426;DHT22;12611;44.446;26.000;2022-07-12T06:18:41;24.10;59.50
24426;DHT22;12611;44.446;26.000;2022-07-12T06:21:09;24.10;59.40
24426;DHT22;12611;44.446;26.000;2022-07-12T06:23:38;24.20;59.50
24426;DHT22;12611;44.446;26.000;2022-07-12T06:26:06;24.30;59.40
24426;DHT22;12611;44.446;26.000;2022-07-12T06:28:36;24.30;59.20
24426;DHT22;12611;44.446;26.000;2022-07-12T06:31:05;24.30;58.90
24426;DHT22;12611;44.446;26.000;2022-07-12T06:33:33;24.30;58.90
24426;DHT22;12611;44.446;26.000;2022-07-12T06:36:02;24.40;58.90
24426;DHT22;12611;44.446;26.000;2022-07-12T06:38:31;24.50;58.80
24426;DHT22;12611;44.446;26.000;2022-07-12T06:41:08;24.50;58.70
24426;DHT22;12611;44.446;26.000;2022-07-12T06:43:38;24.60;58.60
24426;DHT22;12611;44.446;26.000;2022-07-12T06:46:07;24.60;58.50
24426;DHT22;12611;44.446;26.000;2022-07-12T06:48:35;24.70;58.00
24426;DHT22;12611;44.446;26.000;2022-07-12T06:51:03;24.70;58.10
24426;DHT22;12611;44.446;26.000;2022-07-12T06:53:32;24.80;57.70
24426;DHT22;12611;44.446;26.000;2022-07-12T06:56:00;24.80;57.70
24426;DHT22;12611;44.446;26.000;2022-07-12T06:58:29;24.80;57.80
24426;DHT22;12611;44.446;26.000;2022-07-12T07:00:58;24.80;57.40
24426;DHT22;12611;44.446;26.000;2022-07-12T07:03:27;24.90;57.40
24426;DHT22;12611;44.446;26.000;2022-07-12T07:05:55;24.90;57.30
24426;DHT22;12611;44.446;26.000;2022-07-12T07:08:24;24.90;57.10
24426;DHT22;12611;44.446;26.000;2022-07-12T07:10:52;25.00;57.20
24426;DHT22;12611;44.446;26.000;2022-07-12T07:13:21;25.00;57.20
24426;DHT22;12611;44.446;26.000;2022-07-12T07:15:49;25.00;56.70
24426;DHT22;12611;44.446;26.000;2022-07-12T07:18:19;25.00;56.80
24426;DHT22;12611;44.446;26.000;2022-07-12T07:20:47;25.10;57.00
24426;DHT22;12611;44.446;26.000;2022-07-12T07:23:18;25.10;57.00
24426;DHT22;12611;44.446;26.000;2022-07-12T07:25:46;25.10;56.80
24426;DHT22;12611;44.446;26.000;2022-07-12T07:28:15;25.20;56.80
24426;DHT22;12611;44.446;26.000;2022-07-12T07:30:53;25.20;56.90
24426;DHT22;12611;44.446;26.000;2022-07-12T07:33:23;25.20;56.90
24426;DHT22;12611;44.446;26.000;2022-07-12T07:35:52;25.30;56.60
24426;DHT22;12611;44.446;26.000;2022-07-12T07:38:20;25.30;56.20
24426;DHT22;12611;44.446;26.000;2022-07-12T07:40:49;25.40;56.10
24426;DHT22;12611;44.446;26.000;2022-07-12T07:43:17;25.40;55.90
24426;DHT22;12611;44.446;26.000;2022-07-12T07:45:46;25.40;55.80
24426;DHT22;12611;44.446;26.000;2022-07-12T07:48:14;25.50;55.60
24426;DHT22;12611;44.446;26.000;2022-07-12T07:50:53;25.50;55.50
24426;DHT22;12611;44.446;26.000;2022-07-12T07:53:23;25.60;55.40
24426;DHT22;12611;44.446;26.000;2022-07-12T07:55:53;25.60;55.50
24426;DHT22;12611;44.446;26.000;2022-07-12T07:58:21;25.60;55.40
24426;DHT22;12611;44.446;26.000;2022-07-12T08:00:50;25.70;55.40
24426;DHT22;12611;44.446;26.000;2022-07-12T08:03:19;25.70;55.30
24426;DHT22;12611;44.446;26.000;2022-07-12T08:05:48;25.70;54.90
24426;DHT22;12611;44.446;26.000;2022-07-12T08:08:19;25.80;54.80
24426;DHT22;12611;44.446;26.000;2022-07-12T08:10:49;25.80;54.80
24426;DHT22;12611;44.446;26.000;2022-07-12T08:13:17;25.90;54.30
24426;DHT22;12611;44.446;26.000;2022-07-12T08:15:46;25.90;54.10
24426;DHT22;12611;44.446;26.000;2022-07-12T08:18:15;25.90;54.00
24426;DHT22;12611;44.446;26.000;2022-07-12T08:20:43;26.00;54.20
24426;DHT22;12611;44.446;26.000;2022-07-12T08:23:14;26.00;53.70
24426;DHT22;12611;44.446;26.000;2022-07-12T08:25:44;26.00;53.90
24426;DHT22;12611;44.446;26.000;2022-07-12T08:28:12;26.10;54.00
24426;DHT22;12611;44.446;26.000;2022-07-12T08:30:41;26.10;53.90
24426;DHT22;12611;44.446;26.000;2022-07-12T08:33:13;26.10;53.80
24426;DHT22;12611;44.446;26.000;2022-07-12T08:35:42;26.00;54.00
24426;DHT22;12611;44.446;26.000;2022-07-12T08:38:11;26.00;53.90
24426;DHT22;12611;44.446;26.000;2022-07-12T08:40:41;26.00;53.80
24426;DHT22;12611;44.446;26.000;2022-07-12T08:43:14;25.90;53.80
24426;DHT22;12611;44.446;26.000;2022-07-12T08:45:42;25.90;53.80
24426;DHT22;12611;44.446;26.000;2022-07-12T08:48:11;26.00;53.90
24426;DHT22;12611;44.446;26.000;2022-07-12T08:50:39;26.00;53.90
24426;DHT22;12611;44.446;26.000;2022-07-12T08:53:12;26.10;54.00
24426;DHT22;12611;44.446;26.000;2022-07-12T08:55:41;26.10;53.90
24426;DHT22;12611;44.446;26.000;2022-07-12T08:58:16;26.10;53.50
24426;DHT22;12611;44.446;26.000;2022-07-12T09:00:46;26.10;53.70
24426;DHT22;12611;44.446;26.000;2022-07-12T09:03:17;26.10;53.80
24426;DHT22;12611;44.446;26.000;2022-07-12T09:05:50;26.10;54.00
24426;DHT22;12611;44.446;26.000;2022-07-12T09:08:27;26.10;54.00
24426;DHT22;12611;44.446;26.000;2022-07-12T09:10:58;26.20;54.20
24426;DHT22;12611;44.446;26.000;2022-07-12T09:13:49;26.20;54.00
24426;DHT22;12611;44.446;26.000;2022-07-12T09:16:19;26.20;54.20
24426;DHT22;12611;44.446;26.000;2022-07-12T09:18:49;26.20;53.90
24426;DHT22;12611;44.446;26.000;2022-07-12T09:21:22;26.30;53.30
24426;DHT22;12611;44.446;26.000;2022-07-12T09:23:52;26.20;51.70
24426;DHT22;12611;44.446;26.000;2022-07-12T09:26:21;26.20;52.00
24426;DHT22;12611;44.446;26.000;2022-07-12T09:28:51;26.20;52.10
24426;DHT22;12611;44.446;26.000;2022-07-12T09:31:20;26.30;52.10
24426;DHT22;12611;44.446;26.000;2022-07-12T09:34:01;26.30;51.80
24426;DHT22;12611;44.446;26.000;2022-07-12T09:36:56;26.40;51.70
24426;DHT22;12611;44.446;26.000;2022-07-12T09:39:25;26.50;52.10
24426;DHT22;12611;44.446;26.000;2022-07-12T09:41:54;26.60;51.80
24426;DHT22;12611;44.446;26.000;2022-07-12T09:44:27;26.60;51.90
24426;DHT22;12611;44.446;26.000;2022-07-12T09:46:58;26.70;52.10
24426;DHT22;12611;44.446;26.000;2022-07-12T09:49:29;26.80;51.30
24426;DHT22;12611;44.446;26.000;2022-07-12T09:51:59;26.90;50.60
24426;DHT22;12611;44.446;26.000;2022-07-12T09:54:35;27.00;51.00
24426;DHT22;12611;44.446;26.000;2022-07-12T09:57:13;27.00;50.00
24426;DHT22;12611;44.446;26.000;2022-07-12T09:59:49;27.10;50.10
24426;DHT22;12611;44.446;26.000;2022-07-12T10:02:21;27.20;49.90
24426;DHT22;12611;44.446;26.000;2022-07-12T10:04:51;27.20;49.50
24426;DHT22;12611;44.446;26.000;2022-07-12T10:07:20;27.20;49.80
24426;DHT22;12611;44.446;26.000;2022-07-12T10:09:52;27.20;50.80
24426;DHT22;12611;44.446;26.000;2022-07-12T10:12:22;27.30;50.00
24426;DHT22;12611;44.446;26.000;2022-07-12T10:14:57;27.40;49.70
24426;DHT22;12611;44.446;26.000;2022-07-12T10:17:28;27.50;49.80
24426;DHT22;12611;44.446;26.000;2022-07-12T10:20:14;27.60;49.80
24426;DHT22;12611;44.446;26.000;2022-07-12T10:22:43;27.70;49.60
24426;DHT22;12611;44.446;26.000;2022-07-12T10:25:32;27.70;49.40
24426;DHT22;12611;44.446;26.000;2022-07-12T10:28:01;27.80;48.90
24426;DHT22;12611;44.446;26.000;2022-07-12T10:30:41;27.90;48.60
24426;DHT22;12611;44.446;26.000;2022-07-12T10:33:15;27.90;48.00
24426;DHT22;12611;44.446;26.000;2022-07-12T10:35:58;28.00;48.10
24426;DHT22;12611;44.446;26.000;2022-07-12T10:38:27;28.10;48.10
24426;DHT22;12611;44.446;26.000;2022-07-12T10:40:55;28.10;48.00
24426;DHT22;12611;44.446;26.000;2022-07-12T10:43:28;28.10;47.90
24426;DHT22;12611;44.446;26.000;2022-07-12T10:46:17;28.10;48.00
24426;DHT22;12611;44.446;26.000;2022-07-12T10:48:47;28.00;47.70
24426;DHT22;12611;44.446;26.000;2022-07-12T10:51:16;28.00;47.60
24426;DHT22;12611;44.446;26.000;2022-07-12T10:53:48;27.90;47.80
24426;DHT22;12611;44.446;26.000;2022-07-12T10:56:21;28.00;48.00
24426;DHT22;12611;44.446;26.000;2022-07-12T10:58:57;28.10;47.80
24426;DHT22;12611;44.446;26.000;2022-07-12T11:01:29;28.20;48.00
24426;DHT22;12611;44.446;26.000;2022-07-12T11:04:04;28.30;48.10
24426;DHT22;12611;44.446;26.000;2022-07-12T11:06:36;28.40;48.10
24426;DHT22;12611;44.446;26.000;2022-07-12T11:09:06;28.30;48.10
24426;DHT22;12611;44.446;26.000;2022-07-12T11:11:40;28.30;48.00
24426;DHT22;12611;44.446;26.000;2022-07-12T11:14:11;28.40;47.80
24426;DHT22;12611;44.446;26.000;2022-07-12T11:16:45;28.50;47.30
24426;DHT22;12611;44.446;26.000;2022-07-12T11:19:14;28.50;47.50
24426;DHT22;12611;44.446;26.000;2022-07-12T11:21:43;28.50;45.80
24426;DHT22;12611;44.446;26.000;2022-07-12T11:24:16;28.60;45.70
24426;DHT22;12611;44.446;26.000;2022-07-12T11:26:45;28.60;45.10
24426;DHT22;12611;44.446;26.000;2022-07-12T11:29:13;28.50;45.20
24426;DHT22;12611;44.446;26.000;2022-07-12T11:31:44;28.50;45.80
24426;DHT22;12611;44.446;26.000;2022-07-12T11:34:22;28.50;45.40
24426;DHT22;12611;44.446;26.000;2022-07-12T11:36:53;28.50;45.90
24426;DHT22;12611;44.446;26.000;2022-07-12T11:39:32;28.50;46.20
24426;DHT22;12611;44.446;26.000;2022-07-12T11:42:01;28.60;46.20
24426;DHT22;12611;44.446;26.000;2022-07-12T11:44:42;28.60;46.30
24426;DHT22;12611;44.446;26.000;2022-07-12T11:47:12;28.60;45.70
24426;DHT22;12611;44.446;26.000;2022-07-12T11:49:44;28.60;45.70
24426;DHT22;12611;44.446;26.000;2022-07-12T11:52:13;28.60;45.90
24426;DHT22;12611;44.446;26.000;2022-07-12T11:54:42;28.50;45.80
24426;DHT22;12611;44.446;26.000;2022-07-12T11:57:12;28.60;45.70
24426;DHT22;12611;44.446;26.000;2022-07-12T11:59:40;28.60;46.20
24426;DHT22;12611;44.446;26.000;2022-07-12T12:02:12;28.70;45.80
24426;DHT22;12611;44.446;26.000;2022-07-12T12:04:47;28.70;45.10
24426;DHT22;12611;44.446;26.000;2022-07-12T12:07:16;28.80;44.90
24426;DHT22;12611;44.446;26.000;2022-07-12T12:10:03;28.80;45.20
24426;DHT22;12611;44.446;26.000;2022-07-12T12:12:37;28.80;45.20
24426;DHT22;12611;44.446;26.000;2022-07-12T12:15:06;28.70;44.70
24426;DHT22;12611;44.446;26.000;2022-07-12T12:17:37;28.70;44.80
24426;DHT22;12611;44.446;26.000;2022-07-12T12:20:15;28.80;45.00
24426;DHT22;12611;44.446;26.000;2022-07-12T12:22:46;28.80;43.60
24426;DHT22;12611;44.446;26.000;2022-07-12T12:25:15;28.80;43.40
24426;DHT22;12611;44.446;26.000;2022-07-12T12:27:45;28.90;43.10
24426;DHT22;12611;44.446;26.000;2022-07-12T12:30:35;28.90;43.30
24426;DHT22;12611;44.446;26.000;2022-07-12T12:33:33;29.00;43.60
24426;DHT22;12611;44.446;26.000;2022-07-12T12:36:15;29.10;43.90
24426;DHT22;12611;44.446;26.000;2022-07-12T12:38:45;29.20;43.40
24426;DHT22;12611;44.446;26.000;2022-07-12T12:41:15;29.10;42.70
24426;DHT22;12611;44.446;26.000;2022-07-12T12:43:44;29.20;43.10
24426;DHT22;12611;44.446;26.000;2022-07-12T12:46:21;29.30;43.00
24426;DHT22;12611;44.446;26.000;2022-07-12T12:48:51;29.40;43.00
24426;DHT22;12611;44.446;26.000;2022-07-12T12:51:20;29.50;42.70
24426;DHT22;12611;44.446;26.000;2022-07-12T12:53:55;29.60;41.50
24426;DHT22;12611;44.446;26.000;2022-07-12T12:56:24;29.60;41.20
24426;DHT22;12611;44.446;26.000;2022-07-12T12:58:52;29.70;41.20
24426;DHT22;12611;44.446;26.000;2022-07-12T13:01:22;29.60;39.90
24426;DHT22;12611;44.446;26.000;2022-07-12T13:03:52;29.60;40.20
24426;DHT22;12611;44.446;26.000;2022-07-12T13:06:20;29.70;41.00
24426;DHT22;12611;44.446;26.000;2022-07-12T13:08:49;29.80;41.30
24426;DHT22;12611;44.446;26.000;2022-07-12T13:11:18;29.70;41.00
24426;DHT22;12611;44.446;26.000;2022-07-12T13:13:46;29.70;41.20
24426;DHT22;12611;44.446;26.000;2022-07-12T13:16:15;29.70;41.30
24426;DHT22;12611;44.446;26.000;2022-07-12T13:18:43;29.70;40.90
24426;DHT22;12611;44.446;26.000;2022-07-12T13:21:13;29.80;40.90
24426;DHT22;12611;44.446;26.000;2022-07-12T13:23:44;29.90;40.70
24426;DHT22;12611;44.446;26.000;2022-07-12T13:26:12;29.90;40.10
24426;DHT22;12611;44.446;26.000;2022-07-12T13:28:41;30.00;39.90
24426;DHT22;12611;44.446;26.000;2022-07-12T13:31:09;29.90;39.20
24426;DHT22;12611;44.446;26.000;2022-07-12T13:33:38;29.90;38.90
24426;DHT22;12611;44.446;26.000;2022-07-12T13:36:06;29.90;39.10
24426;DHT22;12611;44.446;26.000;2022-07-12T13:38:36;29.90;39.20
24426;DHT22;12611;44.446;26.000;2022-07-12T13:41:05;29.90;39.20
24426;DHT22;12611;44.446;26.000;2022-07-12T13:43:33;29.80;39.30
24426;DHT22;12611;44.446;26.000;2022-07-12T13:46:03;29.80;39.20
24426;DHT22;12611;44.446;26.000;2022-07-12T13:48:32;29.80;39.40
24426;DHT22;12611;44.446;26.000;2022-07-12T13:51:01;29.80;39.20
24426;DHT22;12611;44.446;26.000;2022-07-12T13:53:51;29.70;39.60
24426;DHT22;12611;44.446;26.000;2022-07-12T13:56:19;29.80;39.10
24426;DHT22;12611;44.446;26.000;2022-07-12T13:58:48;29.80;39.20
24426;DHT22;12611;44.446;26.000;2022-07-12T14:01:17;29.80;39.20
24426;DHT22;12611;44.446;26.000;2022-07-12T14:03:45;29.90;39.40
24426;DHT22;12611;44.446;26.000;2022-07-12T14:06:14;30.00;39.30
24426;DHT22;12611;44.446;26.000;2022-07-12T14:08:42;30.10;38.10
24426;DHT22;12611;44.446;26.000;2022-07-12T14:11:19;30.30;38.90
24426;DHT22;12611;44.446;26.000;2022-07-12T14:13:47;30.20;38.20
24426;DHT22;12611;44.446;26.000;2022-07-12T14:16:15;30.10;38.40
24426;DHT22;12611;44.446;26.000;2022-07-12T14:18:45;30.10;38.10
24426;DHT22;12611;44.446;26.000;2022-07-12T14:21:14;30.40;38.40
24426;DHT22;12611;44.446;26.000;2022-07-12T14:23:42;30.70;38.40
24426;DHT22;12611;44.446;26.000;2022-07-12T14:26:11;30.90;37.70
24426;DHT22;12611;44.446;26.000;2022-07-12T14:28:41;31.20;37.80
24426;DHT22;12611;44.446;26.000;2022-07-12T14:31:09;31.30;37.70
24426;DHT22;12611;44.446;26.000;2022-07-12T14:33:38;31.50;37.80
24426;DHT22;12611;44.446;26.000;2022-07-12T14:36:06;31.30;37.40
24426;DHT22;12611;44.446;26.000;2022-07-12T14:38:35;31.10;37.10
24426;DHT22;12611;44.446;26.000;2022-07-12T14:41:03;31.10;37.40
24426;DHT22;12611;44.446;26.000;2022-07-12T14:43:32;31.10;37.50
24426;DHT22;12611;44.446;26.000;2022-07-12T14:46:02;31.10;37.50
24426;DHT22;12611;44.446;26.000;2022-07-12T14:48:30;31.10;37.20
24426;DHT22;12611;44.446;26.000;2022-07-12T14:50:59;30.90;37.30
24426;DHT22;12611;44.446;26.000;2022-07-12T14:53:27;30.90;37.10
24426;DHT22;12611;44.446;26.000;2022-07-12T14:55:55;31.10;37.30
24426;DHT22;12611;44.446;26.000;2022-07-12T14:58:24;30.90;37.00
24426;DHT22;12611;44.446;26.000;2022-07-12T15:00:52;30.80;36.90
24426;DHT22;12611;44.446;26.000;2022-07-12T15:03:22;30.80;37.10
24426;DHT22;12611;44.446;26.000;2022-07-12T15:05:50;30.70;37.20
24426;DHT22;12611;44.446;26.000;2022-07-12T15:08:19;30.60;37.10
24426;DHT22;12611;44.446;26.000;2022-07-12T15:10:47;30.60;37.50
24426;DHT22;12611;44.446;26.000;2022-07-12T15:13:16;30.50;37.80
24426;DHT22;12611;44.446;26.000;2022-07-12T15:15:44;30.50;37.90
24426;DHT22;12611;44.446;26.000;2022-07-12T15:18:13;30.40;37.50
24426;DHT22;12611;44.446;26.000;2022-07-12T15:20:43;30.40;37.30
24426;DHT22;12611;44.446;26.000;2022-07-12T15:23:11;30.30;37.30
24426;DHT22;12611;44.446;26.000;2022-07-12T15:25:39;30.30;37.20
24426;DHT22;12611;44.446;26.000;2022-07-12T15:28:08;30.30;37.20
24426;DHT22;12611;44.446;26.000;2022-07-12T15:30:36;30.20;37.20
24426;DHT22;12611;44.446;26.000;2022-07-12T15:33:05;30.20;37.10